createdAt,value
2019-05-01T00:02:31.359Z,58.25
2019-05-01T00:05:04.471Z,59.83
2019-05-01T00:07:36.609Z,56.35
2019-05-01T00:10:08.329Z,59.60
2019-05-01T00:12:39.859Z,57.05
2019-05-01T00:15:13.806Z,60.33
2019-05-01T00:17:45.584Z,55.35
2019-05-01T00:20:17.860Z,61.83
2019-05-01T00:22:49.256Z,62.53
2019-05-01T00:25:20.795Z,62.45
2019-05-01T00:27:52.187Z,67.95
2019-05-01T00:30:29.992Z,66.10
2019-05-01T00:32:57.748Z,64.00
2019-05-01T00:35:29.266Z,68.80
2019-05-01T00:38:00.856Z,67.97
2019-05-01T00:40:32.488Z,69.47
2019-05-01T00:43:03.947Z,65.20
2019-05-01T00:45:35.650Z,72.10
2019-05-01T00:48:06.952Z,62.98
2019-05-01T00:50:38.389Z,65.00
2019-05-01T00:53:09.978Z,65.57
2019-05-01T00:55:55.858Z,71.47
2019-05-01T00:58:34.789Z,70.50
2019-05-01T01:01:13.851Z,81.00
2019-05-01T01:03:45.654Z,73.83
2019-05-01T01:06:17.061Z,77.22
2019-05-01T01:08:48.806Z,74.20
2019-05-01T01:11:20.166Z,77.82
2019-05-01T01:13:51.773Z,78.40
2019-05-01T01:16:23.238Z,78.25
2019-05-01T01:18:54.720Z,80.45
2019-05-01T01:21:26.172Z,78.17
2019-05-01T01:23:58.032Z,87.22
2019-05-01T01:26:31.250Z,76.92
2019-05-01T01:29:02.766Z,81.30
2019-05-01T01:31:34.293Z,82.35
2019-05-01T01:34:05.889Z,96.12
2019-05-01T01:36:37.440Z,88.03
2019-05-01T01:39:09.102Z,89.72
2019-05-01T01:41:40.753Z,83.17
2019-05-01T01:44:20.233Z,85.45
2019-05-01T01:46:53.570Z,91.90
2019-05-01T01:49:25.015Z,89.32
2019-05-01T01:51:56.584Z,94.67
2019-05-01T01:54:28.554Z,95.00
2019-05-01T01:57:00.006Z,91.00
2019-05-01T01:59:32.074Z,98.82
2019-05-01T02:02:09.593Z,101.70
2019-05-01T02:04:51.681Z,100.58
2019-05-01T02:07:23.340Z,97.72
2019-05-01T02:09:55.037Z,90.32
2019-05-01T02:12:26.910Z,90.28
2019-05-01T02:14:58.588Z,95.57
2019-05-01T02:17:30.049Z,101.85
2019-05-01T02:20:01.492Z,96.10
2019-05-01T02:22:33.209Z,90.28
2019-05-01T02:25:07.494Z,97.35
2019-05-01T02:27:41.172Z,97.75
2019-05-01T02:30:14.367Z,96.85
2019-05-01T02:32:47.252Z,98.12
2019-05-01T02:35:19.899Z,101.62
2019-05-01T02:37:53.320Z,98.60
2019-05-01T02:40:45.931Z,95.40
2019-05-01T02:43:19.285Z,98.40
2019-05-01T02:45:54.913Z,98.20
2019-05-01T02:48:28.221Z,98.92
2019-05-01T02:51:02.628Z,99.45
2019-05-01T02:53:38.121Z,88.50
2019-05-01T02:56:29.398Z,98.37
2019-05-01T02:59:02.888Z,98.82
2019-05-01T03:01:47.417Z,97.08
2019-05-01T03:04:12.140Z,105.30
2019-05-01T03:06:44.486Z,100.40
2019-05-01T03:09:18.231Z,96.60
2019-05-01T03:11:53.103Z,98.85
2019-05-01T03:14:29.457Z,101.90
2019-05-01T03:17:03.911Z,102.70
2019-05-01T03:19:37.250Z,102.30
2019-05-01T03:22:11.242Z,92.92
2019-05-01T03:24:43.990Z,99.05
2019-05-01T03:27:16.565Z,101.60
2019-05-01T03:29:48.498Z,102.85
2019-05-01T03:32:20.190Z,112.55
2019-05-01T03:34:53.410Z,99.60
2019-05-01T03:37:25.216Z,99.35
2019-05-01T03:39:57.098Z,97.20
2019-05-01T03:42:29.593Z,91.53
2019-05-01T03:45:01.954Z,100.38
2019-05-01T03:47:33.686Z,94.17
2019-05-01T03:50:07.830Z,97.75
2019-05-01T03:52:39.409Z,94.67
2019-05-01T03:55:11.089Z,95.57
2019-05-01T03:57:43.344Z,94.65
2019-05-01T04:00:16.999Z,96.02
2019-05-01T04:03:06.677Z,98.47
2019-05-01T04:05:38.173Z,106.85
2019-05-01T04:08:11.523Z,94.20
2019-05-01T04:10:43.742Z,97.15
2019-05-01T04:13:15.483Z,100.45
2019-05-01T04:15:47.146Z,102.82
2019-05-01T04:18:18.796Z,103.32
2019-05-01T04:20:50.601Z,101.53
2019-05-01T04:23:22.220Z,106.70
2019-05-01T04:25:54.811Z,100.62
2019-05-01T04:28:30.744Z,103.55
2019-05-01T04:31:22.214Z,96.42
2019-05-01T04:33:58.997Z,91.15
2019-05-01T04:36:32.103Z,94.72
2019-05-01T04:39:05.983Z,87.78
2019-05-01T04:41:38.050Z,84.00
2019-05-01T04:44:10.073Z,80.75
2019-05-01T04:46:41.547Z,72.00
2019-05-01T04:49:17.823Z,75.08
2019-05-01T04:51:47.857Z,73.70
2019-05-01T04:54:19.519Z,76.10
2019-05-01T04:56:51.107Z,77.15
2019-05-01T04:59:22.728Z,69.12
2019-05-01T05:02:01.984Z,73.45
2019-05-01T05:04:34.512Z,76.65
2019-05-01T05:07:05.986Z,75.55
2019-05-01T05:09:42.360Z,79.05
2019-05-01T05:12:15.649Z,75.03
2019-05-01T05:14:48.736Z,72.45
2019-05-01T05:17:24.073Z,74.72
2019-05-01T05:19:56.291Z,70.37
2019-05-01T05:22:27.773Z,71.02
2019-05-01T05:25:00.395Z,77.20
2019-05-01T05:27:33.215Z,73.37
2019-05-01T05:30:05.769Z,71.28
2019-05-01T05:32:40.283Z,68.05
2019-05-01T05:35:14.214Z,65.92
2019-05-01T05:37:56.018Z,67.87
2019-05-01T05:40:30.952Z,71.75
2019-05-01T05:43:02.808Z,65.60
2019-05-01T05:45:35.489Z,67.08
2019-05-01T05:48:07.512Z,66.35
2019-05-01T05:50:42.731Z,62.70
2019-05-01T05:53:17.430Z,62.95
2019-05-01T05:55:53.146Z,67.53
2019-05-01T05:58:31.851Z,65.12
2019-05-01T06:01:13.886Z,62.08
2019-05-01T06:03:54.124Z,62.17
2019-05-01T06:06:35.373Z,59.23
2019-05-01T06:09:08.941Z,61.48
2019-05-01T06:12:00.171Z,59.60
2019-05-01T06:14:40.580Z,58.92
2019-05-01T06:17:30.381Z,61.68
2019-05-01T06:23:06.586Z,52.62
2019-05-01T06:25:48.461Z,55.00
2019-05-01T06:28:24.769Z,55.88
2019-05-01T06:30:55.052Z,49.38
2019-05-01T06:33:28.126Z,50.05
2019-05-01T06:35:59.571Z,46.73
2019-05-01T06:38:36.066Z,51.33
2019-05-01T06:41:05.068Z,47.05
2019-05-01T06:43:44.178Z,51.05
2019-05-01T06:46:22.186Z,47.88
2019-05-01T06:49:06.956Z,48.15
2019-05-01T06:51:42.703Z,44.50
2019-05-01T06:54:16.316Z,46.63
2019-05-01T06:56:50.620Z,49.20
2019-05-01T06:59:26.368Z,44.27
2019-05-01T07:01:58.469Z,44.10
2019-05-01T07:04:32.327Z,43.80
2019-05-01T07:07:09.867Z,40.90
2019-05-01T07:09:44.130Z,45.28
2019-05-01T07:12:15.590Z,46.15
2019-05-01T07:14:50.826Z,42.00
2019-05-01T07:17:20.973Z,44.25
2019-05-01T07:20:11.910Z,42.58
2019-05-01T07:22:44.180Z,41.48
2019-05-01T07:25:15.545Z,45.00
2019-05-01T07:27:47.239Z,42.67
2019-05-01T07:30:28.085Z,61.53
2019-05-01T07:32:59.714Z,45.48
2019-05-01T07:35:33.071Z,48.10
2019-05-01T07:38:05.056Z,47.67
2019-05-01T07:40:36.963Z,43.63
2019-05-01T07:43:19.002Z,44.18
2019-05-01T07:45:51.709Z,43.92
2019-05-01T07:48:41.622Z,40.73
2019-05-01T07:51:13.321Z,42.05
2019-05-01T07:53:45.671Z,46.08
2019-05-01T07:56:18.487Z,43.50
2019-05-01T07:58:52.023Z,39.53
2019-05-01T08:01:40.217Z,40.83
2019-05-01T08:04:13.864Z,46.88
2019-05-01T08:06:46.099Z,46.10
2019-05-01T08:09:17.517Z,48.50
2019-05-01T08:11:48.786Z,42.17
2019-05-01T08:14:20.229Z,41.70
2019-05-01T08:16:51.706Z,40.48
2019-05-01T08:19:27.470Z,39.75
2019-05-01T08:22:12.483Z,39.63
2019-05-01T08:24:43.941Z,44.77
2019-05-01T08:27:20.216Z,38.55
2019-05-01T08:30:12.764Z,43.48
2019-05-01T08:32:44.846Z,54.45
2019-05-01T08:35:17.875Z,41.60
2019-05-01T08:37:49.389Z,39.60
2019-05-01T08:40:21.777Z,47.15
2019-05-01T08:42:53.261Z,64.53
2019-05-01T08:45:28.862Z,60.33
2019-05-01T08:48:07.876Z,55.92
2019-05-01T08:50:39.346Z,49.03
2019-05-01T08:53:10.865Z,50.05
2019-05-01T08:55:45.437Z,42.75
2019-05-01T08:58:15.932Z,42.05
2019-05-01T09:00:47.548Z,41.30
2019-05-01T09:03:20.466Z,39.33
2019-05-01T09:05:56.784Z,38.55
2019-05-01T09:08:26.982Z,40.70
2019-05-01T09:11:00.379Z,38.08
2019-05-01T09:13:31.325Z,40.88
2019-05-01T09:16:02.719Z,36.38
2019-05-01T09:18:34.061Z,36.80
2019-05-01T09:21:05.483Z,31.68
2019-05-01T09:23:37.044Z,33.40
2019-05-01T09:26:15.899Z,32.05
2019-05-01T09:28:47.867Z,60.38
2019-05-01T09:31:34.421Z,44.60
2019-05-01T09:34:09.210Z,37.90
2019-05-01T09:36:39.650Z,33.67
2019-05-01T09:39:12.689Z,35.78
2019-05-01T09:41:47.385Z,42.35
2019-05-01T09:44:18.863Z,36.73
2019-05-01T09:46:50.350Z,36.77
2019-05-01T09:49:22.518Z,36.50
2019-05-01T09:51:55.743Z,39.35
2019-05-01T09:54:28.717Z,45.65
2019-05-01T09:57:00.100Z,35.83
2019-05-01T09:59:31.461Z,29.27
2019-05-01T10:02:07.710Z,35.90
2019-05-01T10:04:36.038Z,38.92
2019-05-01T10:07:09.193Z,32.98
2019-05-01T10:09:40.794Z,37.17
2019-05-01T10:12:13.187Z,29.65
2019-05-01T10:14:44.673Z,39.38
2019-05-01T10:17:16.219Z,41.10
2019-05-01T10:19:50.095Z,31.50
2019-05-01T10:22:20.636Z,33.28
2019-05-01T10:24:51.975Z,31.23
2019-05-01T10:27:26.199Z,29.23
2019-05-01T10:30:04.941Z,30.27
2019-05-01T10:32:38.426Z,27.98
2019-05-01T10:35:19.211Z,22.02
2019-05-01T10:37:50.905Z,25.10
2019-05-01T10:40:26.946Z,22.93
2019-05-01T10:42:59.719Z,24.82
2019-05-01T10:45:31.177Z,20.30
2019-05-01T10:48:02.680Z,21.17
2019-05-01T10:50:34.085Z,22.25
2019-05-01T10:53:05.722Z,20.43
2019-05-01T10:55:37.094Z,24.15
2019-05-01T10:58:12.739Z,34.85
2019-05-01T11:00:43.567Z,19.92
2019-05-01T11:03:15.073Z,26.70
2019-05-01T11:05:55.826Z,18.50
2019-05-01T11:08:20.613Z,28.55
2019-05-01T11:10:52.108Z,21.65
2019-05-01T11:13:23.656Z,21.75
2019-05-01T11:15:55.491Z,15.43
2019-05-01T11:18:27.117Z,18.52
2019-05-01T11:21:00.007Z,26.75
2019-05-01T11:23:31.690Z,22.90
2019-05-01T11:26:03.618Z,24.35
2019-05-01T11:28:35.642Z,51.45
2019-05-01T11:31:09.091Z,22.30
2019-05-01T11:33:42.463Z,28.20
2019-05-01T11:36:15.940Z,37.80
2019-05-01T11:38:50.440Z,35.78
2019-05-01T11:41:40.174Z,31.25
2019-05-01T11:46:42.667Z,29.85
2019-05-01T11:49:15.046Z,33.38
2019-05-01T11:51:47.781Z,28.17
2019-05-01T11:54:20.568Z,25.45
2019-05-01T11:56:52.306Z,19.37
2019-05-01T11:59:24.111Z,12.23
2019-05-01T12:01:55.830Z,12.75
2019-05-01T12:04:30.160Z,132.85
2019-05-01T12:07:01.901Z,18.95
2019-05-01T12:09:33.709Z,15.43
2019-05-01T12:12:08.002Z,18.60
2019-05-01T12:14:40.810Z,16.95
2019-05-01T12:17:23.224Z,23.87
2019-05-01T12:19:54.971Z,16.07
2019-05-01T12:22:26.677Z,18.10
2019-05-01T12:24:58.925Z,18.92
2019-05-01T12:27:30.707Z,15.83
2019-05-01T12:30:02.468Z,14.65
2019-05-01T12:32:35.309Z,13.53
2019-05-01T12:35:17.839Z,9.05
2019-05-01T12:37:49.822Z,11.80
2019-05-01T12:40:21.843Z,13.70
2019-05-01T12:42:53.689Z,9.08
2019-05-01T12:45:25.277Z,23.12
2019-05-01T12:47:58.571Z,15.50
2019-05-01T12:50:31.937Z,7.83
2019-05-01T12:53:14.029Z,9.23
2019-05-01T12:55:48.187Z,9.63
2019-05-01T12:58:19.801Z,7.72
2019-05-01T13:00:55.803Z,13.93
2019-05-01T13:03:27.623Z,10.60
2019-05-01T13:06:00.543Z,14.63
2019-05-01T13:08:32.362Z,7.80
2019-05-01T13:11:04.750Z,7.10
2019-05-01T13:16:12.033Z,13.53
2019-05-01T13:18:43.817Z,7.08
2019-05-01T13:21:15.401Z,8.68
2019-05-01T13:23:47.039Z,21.48
2019-05-01T13:26:20.400Z,10.05
2019-05-01T13:29:03.304Z,9.48
2019-05-01T13:31:48.593Z,9.65
2019-05-01T13:34:20.141Z,7.87
2019-05-01T13:37:02.389Z,10.80
2019-05-01T13:39:27.034Z,9.73
2019-05-01T13:41:58.645Z,13.93
2019-05-01T13:44:30.349Z,11.83
2019-05-01T13:47:02.167Z,15.23
2019-05-01T13:49:33.882Z,19.48
2019-05-01T13:52:05.583Z,9.43
2019-05-01T13:54:37.101Z,8.98
2019-05-01T13:57:08.806Z,10.50
2019-05-01T13:59:41.890Z,10.35
2019-05-01T14:02:15.321Z,14.45
2019-05-01T14:04:47.298Z,8.68
2019-05-01T14:07:20.310Z,32.35
2019-05-01T14:09:52.978Z,11.55
2019-05-01T14:12:24.716Z,15.35
2019-05-01T14:14:57.930Z,10.23
2019-05-01T14:17:29.681Z,11.05
2019-05-01T14:20:08.776Z,11.28
2019-05-01T14:22:51.280Z,9.95
2019-05-01T14:25:22.876Z,10.68
2019-05-01T14:27:54.648Z,7.83
2019-05-01T14:30:26.293Z,10.43
2019-05-01T14:32:58.107Z,13.83
2019-05-01T14:35:29.808Z,10.30
2019-05-01T14:38:01.628Z,5.95
2019-05-01T14:40:33.483Z,10.25
2019-05-01T14:43:05.366Z,9.78
2019-05-01T14:45:37.137Z,10.60
2019-05-01T14:48:08.965Z,11.80
2019-05-01T14:50:40.744Z,11.30
2019-05-01T14:53:12.688Z,85.77
2019-05-01T14:55:44.512Z,10.80
2019-05-01T14:58:16.313Z,7.78
2019-05-01T15:00:47.924Z,10.65
2019-05-01T15:03:19.832Z,8.40
2019-05-01T15:05:51.471Z,10.35
2019-05-01T15:08:24.176Z,10.40
2019-05-01T15:10:56.906Z,7.12
2019-05-01T15:13:46.380Z,5.80
2019-05-01T15:16:35.687Z,5.60
2019-05-01T15:19:14.799Z,7.87
2019-05-01T15:21:46.326Z,9.28
2019-05-01T15:24:17.867Z,9.20
2019-05-01T15:26:49.439Z,7.17
2019-05-01T15:29:23.467Z,8.43
2019-05-01T15:31:55.002Z,9.80
2019-05-01T15:34:26.648Z,7.67
2019-05-01T15:36:58.368Z,6.45
2019-05-01T15:39:31.518Z,7.97
2019-05-01T15:42:07.644Z,7.17
2019-05-01T15:44:41.196Z,7.55
2019-05-01T15:47:12.938Z,7.90
2019-05-01T15:49:45.987Z,8.75
2019-05-01T15:52:17.600Z,37.90
2019-05-01T15:54:49.406Z,7.67
2019-05-01T15:57:21.009Z,10.00
2019-05-01T15:59:52.809Z,10.18
2019-05-01T16:02:24.575Z,7.37
2019-05-01T16:04:56.237Z,11.38
2019-05-01T16:07:27.937Z,8.75
2019-05-01T16:09:59.544Z,13.03
2019-05-01T16:12:32.892Z,8.78
2019-05-01T16:15:08.494Z,11.68
2019-05-01T16:17:40.301Z,8.93
2019-05-01T16:20:17.014Z,15.53
2019-05-01T16:22:48.998Z,9.13
2019-05-01T16:25:20.981Z,10.48
2019-05-01T16:27:52.824Z,11.88
2019-05-01T16:30:26.340Z,12.53
2019-05-01T16:32:58.210Z,11.28
2019-05-01T16:35:31.663Z,9.30
2019-05-01T16:38:04.784Z,9.83
2019-05-01T16:40:58.165Z,7.97
2019-05-01T16:43:29.803Z,12.70
2019-05-01T16:46:01.751Z,10.23
2019-05-01T16:48:33.606Z,13.15
2019-05-01T16:51:13.662Z,14.90
2019-05-01T16:53:45.350Z,12.37
2019-05-01T16:56:17.230Z,14.20
2019-05-01T16:58:49.024Z,11.25
2019-05-01T17:01:23.280Z,11.10
2019-05-01T17:04:06.690Z,10.60
2019-05-01T17:06:45.931Z,9.70
2019-05-01T17:09:37.426Z,10.32
2019-05-01T17:12:10.967Z,8.05
2019-05-01T17:14:42.536Z,6.42
2019-05-01T17:17:15.751Z,23.60
2019-05-01T17:19:47.501Z,6.75
2019-05-01T17:22:19.099Z,6.25
2019-05-01T17:24:50.603Z,7.92
2019-05-01T17:27:23.272Z,8.30
2019-05-01T17:29:57.260Z,9.35
2019-05-01T17:32:29.908Z,16.12
2019-05-01T17:35:06.255Z,11.33
2019-05-01T17:37:35.512Z,10.82
2019-05-01T17:40:07.920Z,14.58
2019-05-01T17:42:40.861Z,12.65
2019-05-01T17:45:12.758Z,9.53
2019-05-01T17:47:46.228Z,14.28
2019-05-01T17:50:21.136Z,11.48
2019-05-01T17:52:51.678Z,12.55
2019-05-01T17:55:24.270Z,11.15
2019-05-01T17:57:55.795Z,9.75
2019-05-01T18:00:30.176Z,8.83
2019-05-01T18:03:05.303Z,6.60
2019-05-01T18:05:56.178Z,5.75
2019-05-01T18:08:28.437Z,7.22
2019-05-01T18:10:59.750Z,31.50
2019-05-01T18:13:31.348Z,11.00
2019-05-01T18:16:02.768Z,14.95
2019-05-01T18:18:34.236Z,9.08
2019-05-01T18:21:05.552Z,4.47
2019-05-01T18:23:56.830Z,4.83
2019-05-01T18:26:32.305Z,6.53
2019-05-01T18:29:11.287Z,6.90
2019-05-01T18:31:42.959Z,9.85
2019-05-01T18:34:14.468Z,11.45
2019-05-01T18:37:02.874Z,7.75
2019-05-01T18:39:35.839Z,8.73
2019-05-01T18:42:08.831Z,5.90
2019-05-01T18:44:42.594Z,5.72
2019-05-01T18:47:13.282Z,7.08
2019-05-01T18:49:46.759Z,8.60
2019-05-01T18:52:18.555Z,5.05
2019-05-01T18:54:49.872Z,5.17
2019-05-01T18:57:21.038Z,4.92
2019-05-01T18:59:52.261Z,10.55
2019-05-01T19:02:25.154Z,6.60
2019-05-01T19:04:58.257Z,3.92
2019-05-01T19:07:29.796Z,10.82
2019-05-01T19:10:01.322Z,7.45
2019-05-01T19:12:32.782Z,10.75
2019-05-01T19:15:05.569Z,9.63
2019-05-01T19:17:37.386Z,7.92
2019-05-01T19:20:08.770Z,7.25
2019-05-01T19:22:40.197Z,5.15
2019-05-01T19:25:16.129Z,8.48
2019-05-01T19:27:44.765Z,13.10
2019-05-01T19:30:17.012Z,9.83
2019-05-01T19:32:48.129Z,6.33
2019-05-01T19:35:23.596Z,5.40
2019-05-01T19:37:57.443Z,7.12
2019-05-01T19:40:30.634Z,10.88
2019-05-01T19:43:00.144Z,4.35
2019-05-01T19:45:33.095Z,2.70
2019-05-01T19:48:04.653Z,6.20
2019-05-01T19:50:39.911Z,5.53
2019-05-01T19:53:09.999Z,5.03
2019-05-01T19:55:44.853Z,9.75
2019-05-01T19:58:15.362Z,7.58
2019-05-01T20:00:55.278Z,9.45
2019-05-01T20:03:30.536Z,15.58
2019-05-01T20:06:05.375Z,14.10
2019-05-01T20:08:33.564Z,9.03
2019-05-01T20:11:05.034Z,6.72
2019-05-01T20:13:36.529Z,6.83
2019-05-01T20:16:09.129Z,8.00
2019-05-01T20:18:40.495Z,8.23
2019-05-01T20:21:11.750Z,10.38
2019-05-01T20:23:43.227Z,9.13
2019-05-01T20:26:14.506Z,9.75
2019-05-01T20:28:47.152Z,10.03
2019-05-01T20:31:20.864Z,5.40
2019-05-01T20:33:51.875Z,7.85
2019-05-01T20:36:23.692Z,7.80
2019-05-01T20:38:54.909Z,6.42
2019-05-01T20:41:26.179Z,7.83
2019-05-01T20:43:57.650Z,8.78
2019-05-01T20:46:28.951Z,7.17
2019-05-01T20:49:00.951Z,6.72
2019-05-01T20:51:33.498Z,12.98
2019-05-01T20:54:05.056Z,12.80
2019-05-01T20:56:54.236Z,11.97
2019-05-01T20:59:25.630Z,6.08
2019-05-01T21:01:59.627Z,9.85
2019-05-01T21:04:47.004Z,7.87
2019-05-01T21:07:35.301Z,12.20
2019-05-01T21:10:07.398Z,8.13
2019-05-01T21:12:38.819Z,6.30
2019-05-01T21:15:10.561Z,7.80
2019-05-01T21:17:44.297Z,10.13
2019-05-01T21:20:15.766Z,7.40
2019-05-01T21:22:47.295Z,8.55
2019-05-01T21:25:18.575Z,3.92
2019-05-01T21:27:49.867Z,7.00
2019-05-01T21:30:21.099Z,5.70
2019-05-01T21:32:54.193Z,6.28
2019-05-01T21:35:25.699Z,5.80
2019-05-01T21:37:57.256Z,9.43
2019-05-01T21:40:38.685Z,4.08
2019-05-01T21:43:03.043Z,9.75
2019-05-01T21:45:34.464Z,4.47
2019-05-01T21:48:05.769Z,3.87
2019-05-01T21:50:38.187Z,7.00
2019-05-01T21:53:09.480Z,5.42
2019-05-01T21:55:42.328Z,3.77
2019-05-01T21:58:15.263Z,4.53
2019-05-01T22:00:48.865Z,11.35
2019-05-01T22:03:23.043Z,5.20
2019-05-01T22:05:56.218Z,5.78
2019-05-01T22:08:27.919Z,6.80
2019-05-01T22:11:01.753Z,6.85
2019-05-01T22:13:32.393Z,4.72
2019-05-01T22:16:05.415Z,6.55
2019-05-01T22:18:47.395Z,4.62
2019-05-01T22:21:32.632Z,6.97
2019-05-01T22:24:21.932Z,7.40
2019-05-01T22:26:59.107Z,7.28
2019-05-01T22:29:34.153Z,5.92
2019-05-01T22:32:27.776Z,7.05
2019-05-01T22:35:04.088Z,4.95
2019-05-01T22:37:35.906Z,7.37
2019-05-01T22:40:08.937Z,5.70
2019-05-01T22:42:40.343Z,4.37
2019-05-01T22:45:16.759Z,7.85
2019-05-01T22:47:50.765Z,7.70
2019-05-01T22:50:21.770Z,7.70
2019-05-01T22:52:53.088Z,5.95
2019-05-01T22:55:26.636Z,6.42
2019-05-01T22:57:59.113Z,5.17
2019-05-01T23:00:41.217Z,7.20
2019-05-01T23:03:20.557Z,7.00
2019-05-01T23:05:51.980Z,6.25
2019-05-01T23:08:23.503Z,8.03
2019-05-01T23:10:54.804Z,7.03
2019-05-01T23:13:26.164Z,7.67
2019-05-01T23:15:58.083Z,9.05
2019-05-01T23:18:29.414Z,7.10
2019-05-01T23:21:00.631Z,8.80
2019-05-01T23:23:32.009Z,13.68
2019-05-01T23:26:03.818Z,9.88
2019-05-01T23:28:39.829Z,4.62
2019-05-01T23:31:08.622Z,8.68
2019-05-01T23:33:39.965Z,7.22
2019-05-01T23:36:23.002Z,6.25
2019-05-01T23:38:44.398Z,4.80
2019-05-01T23:41:15.855Z,5.85
2019-05-01T23:43:47.212Z,6.05
2019-05-01T23:46:18.596Z,6.92
2019-05-01T23:48:50.051Z,4.45
2019-05-01T23:51:23.617Z,7.95
2019-05-01T23:53:54.947Z,6.05
2019-05-01T23:56:26.250Z,7.53
2019-05-01T23:58:57.589Z,7.22
